createdAt,value
2024-02-05T00:00:03.189Z,19.68
2024-02-05T00:01:05.281Z,20.60
2024-02-05T00:02:07.365Z,20.22
2024-02-05T00:03:10.447Z,19.03
2024-02-05T00:04:16.763Z,18.22
2024-02-05T00:05:18.930Z,18.37
2024-02-05T00:06:20.904Z,20.08
2024-02-05T00:07:23.236Z,20.43
2024-02-05T00:08:25.302Z,20.17
2024-02-05T00:09:27.257Z,20.48
2024-02-05T00:10:29.245Z,19.95
2024-02-05T00:11:31.192Z,20.55
2024-02-05T00:12:33.389Z,20.32
2024-02-05T00:13:35.390Z,20.43
2024-02-05T00:14:37.385Z,19.88
2024-02-05T00:15:39.403Z,20.17
2024-02-05T00:16:41.551Z,20.40
2024-02-05T00:17:46.157Z,19.28
2024-02-05T00:18:48.189Z,20.75
2024-02-05T00:19:50.247Z,21.42
2024-02-05T00:20:53.132Z,22.00
2024-02-05T00:21:55.170Z,20.77
2024-02-05T00:22:57.281Z,20.68
2024-02-05T00:23:59.275Z,20.95
2024-02-05T00:25:02.407Z,21.08
2024-02-05T00:26:04.504Z,20.45
2024-02-05T00:27:06.549Z,20.62
2024-02-05T00:28:09.108Z,21.05
2024-02-05T00:29:11.217Z,20.60
2024-02-05T00:30:14.355Z,20.58
2024-02-05T00:31:17.309Z,21.53
2024-02-05T00:32:19.281Z,20.55
2024-02-05T00:33:21.445Z,22.23
2024-02-05T00:34:23.622Z,22.17
2024-02-05T00:35:25.811Z,21.68
2024-02-05T00:36:28.779Z,20.48
2024-02-05T00:37:30.784Z,21.58
2024-02-05T00:38:32.843Z,21.97
2024-02-05T00:39:34.945Z,22.32
2024-02-05T00:40:36.954Z,21.55
2024-02-05T00:41:38.916Z,21.98
2024-02-05T00:42:40.976Z,21.37
2024-02-05T00:43:42.963Z,20.70
2024-02-05T00:44:44.971Z,20.08
2024-02-05T00:45:47.063Z,22.90
2024-02-05T00:46:50.164Z,23.78
2024-02-05T00:47:52.266Z,24.50
2024-02-05T00:48:55.313Z,24.47
2024-02-05T00:49:57.980Z,23.93
2024-02-05T00:51:00.095Z,25.70
2024-02-05T00:52:02.138Z,25.80
2024-02-05T00:53:04.201Z,26.87
2024-02-05T00:54:06.179Z,27.93
2024-02-05T00:55:08.356Z,26.97
2024-02-05T00:56:10.340Z,26.67
2024-02-05T00:57:12.323Z,27.65
2024-02-05T00:58:14.727Z,27.20
2024-02-05T00:59:16.725Z,26.90
2024-02-05T01:00:19.203Z,27.42
2024-02-05T01:01:21.318Z,26.83
2024-02-05T01:02:24.435Z,27.68
2024-02-05T01:03:26.412Z,26.83
2024-02-05T01:04:31.980Z,26.40
2024-02-05T01:05:34.429Z,27.20
2024-02-05T01:06:36.766Z,26.33
2024-02-05T01:07:39.105Z,26.98
2024-02-05T01:08:41.167Z,26.02
2024-02-05T01:09:43.189Z,26.32
2024-02-05T01:10:45.153Z,25.82
2024-02-05T01:11:47.153Z,25.12
2024-02-05T01:12:52.157Z,25.15
2024-02-05T01:13:54.192Z,26.85
2024-02-05T01:14:56.139Z,25.78
2024-02-05T01:15:58.262Z,25.22
2024-02-05T01:17:00.648Z,25.80
2024-02-05T01:18:04.323Z,26.55
2024-02-05T01:19:06.498Z,27.70
2024-02-05T01:20:12.268Z,26.33
2024-02-05T01:21:14.784Z,26.75
2024-02-05T01:22:16.859Z,26.98
2024-02-05T01:23:19.443Z,26.30
2024-02-05T01:24:21.457Z,26.70
2024-02-05T01:25:23.578Z,26.95
2024-02-05T01:26:25.711Z,26.43
2024-02-05T01:27:27.675Z,27.75
2024-02-05T01:28:29.677Z,27.10
2024-02-05T01:29:31.652Z,28.33
2024-02-05T01:30:33.758Z,28.02
2024-02-05T01:31:36.091Z,27.13
2024-02-05T01:32:38.914Z,28.00
2024-02-05T01:33:42.513Z,27.02
2024-02-05T01:34:44.734Z,27.32
2024-02-05T01:35:46.783Z,26.60
2024-02-05T01:36:48.822Z,26.70
2024-02-05T01:37:50.874Z,28.37
2024-02-05T01:38:52.855Z,27.90
2024-02-05T01:39:54.870Z,27.45
2024-02-05T01:40:56.933Z,27.75
2024-02-05T01:41:59.736Z,27.23
2024-02-05T01:43:02.268Z,27.47
2024-02-05T01:44:04.307Z,26.00
2024-02-05T01:45:06.904Z,27.23
2024-02-05T01:46:09.007Z,26.42
2024-02-05T01:47:11.382Z,27.20
2024-02-05T01:48:13.513Z,26.48
2024-02-05T01:49:15.857Z,27.03
2024-02-05T01:50:18.008Z,26.97
2024-02-05T01:51:19.997Z,26.75
2024-02-05T01:52:22.672Z,27.17
2024-02-05T01:53:24.851Z,26.00
2024-02-05T01:54:26.808Z,26.37
2024-02-05T01:55:28.819Z,27.22
2024-02-05T01:56:32.063Z,26.78
2024-02-05T01:57:34.257Z,26.00
2024-02-05T01:58:36.213Z,26.37
2024-02-05T01:59:38.816Z,26.78
2024-02-05T02:00:40.966Z,26.10
2024-02-05T02:01:43.196Z,26.65
2024-02-05T02:02:45.248Z,26.05
2024-02-05T02:03:47.259Z,24.95
2024-02-05T02:04:49.421Z,25.92
2024-02-05T02:05:51.465Z,26.13
2024-02-05T02:06:53.477Z,26.03
2024-02-05T02:07:58.280Z,25.65
2024-02-05T02:09:03.412Z,25.13
2024-02-05T02:10:05.907Z,25.13
2024-02-05T02:11:08.338Z,26.02
2024-02-05T02:12:10.280Z,26.07
2024-02-05T02:13:14.411Z,25.43
2024-02-05T02:14:17.440Z,25.58
2024-02-05T02:15:19.687Z,26.05
2024-02-05T02:16:26.312Z,26.45
2024-02-05T02:17:29.812Z,26.40
2024-02-05T02:18:31.911Z,26.88
2024-02-05T02:19:38.279Z,26.73
2024-02-05T02:20:47.277Z,26.35
2024-02-05T02:21:52.729Z,27.05
2024-02-05T02:23:03.444Z,27.58
2024-02-05T02:24:08.287Z,27.53
2024-02-05T02:25:11.256Z,28.43
2024-02-05T02:26:13.294Z,28.10
2024-02-05T02:27:15.284Z,28.50
2024-02-05T02:28:17.306Z,29.28
2024-02-05T02:29:19.288Z,27.52
2024-02-05T02:30:21.228Z,27.72
2024-02-05T02:31:24.009Z,27.48
2024-02-05T02:32:31.698Z,26.55
2024-02-05T02:33:36.465Z,26.28
2024-02-05T02:34:38.618Z,27.02
2024-02-05T02:35:46.015Z,26.48
2024-02-05T02:36:56.607Z,26.17
2024-02-05T02:38:09.868Z,25.53
2024-02-05T02:39:17.677Z,25.70
2024-02-05T02:40:19.747Z,24.73
2024-02-05T02:41:25.629Z,24.93
2024-02-05T02:42:27.674Z,25.62
2024-02-05T02:43:29.660Z,24.63
2024-02-05T02:44:31.616Z,25.07
2024-02-05T02:45:33.628Z,25.47
2024-02-05T02:46:35.599Z,25.38
2024-02-05T02:47:37.640Z,24.62
2024-02-05T02:48:39.738Z,24.48
2024-02-05T02:49:41.941Z,24.00
2024-02-05T02:50:46.767Z,25.22
2024-02-05T02:51:48.795Z,24.78
2024-02-05T02:52:50.764Z,25.22
2024-02-05T02:53:52.845Z,25.05
2024-02-05T02:54:54.827Z,26.48
2024-02-05T02:55:56.945Z,25.62
2024-02-05T02:56:58.900Z,25.45
2024-02-05T02:58:00.922Z,26.20
2024-02-05T02:59:03.028Z,25.52
2024-02-05T03:00:06.812Z,26.08
2024-02-05T03:01:09.943Z,24.50
2024-02-05T03:02:12.138Z,25.53
2024-02-05T03:03:14.238Z,24.50
2024-02-05T03:04:16.615Z,24.87
2024-02-05T03:05:18.712Z,26.30
2024-02-05T03:06:20.720Z,26.35
2024-02-05T03:07:22.740Z,25.58
2024-02-05T03:08:25.130Z,24.43
2024-02-05T03:09:27.953Z,24.30
2024-02-05T03:10:29.972Z,24.18
2024-02-05T03:11:31.951Z,25.18
2024-02-05T03:12:34.288Z,24.85
2024-02-05T03:13:36.347Z,25.25
2024-02-05T03:14:38.642Z,25.25
2024-02-05T03:15:40.643Z,25.17
2024-02-05T03:16:42.652Z,25.38
2024-02-05T03:17:44.856Z,23.83
2024-02-05T03:18:46.998Z,25.57
2024-02-05T03:19:49.115Z,24.02
2024-02-05T03:20:51.170Z,25.50
2024-02-05T03:21:53.231Z,25.40
2024-02-05T03:23:02.563Z,24.87
2024-02-05T03:24:10.452Z,25.10
2024-02-05T03:25:13.974Z,24.92
2024-02-05T03:26:16.092Z,23.55
2024-02-05T03:27:18.100Z,23.07
2024-02-05T03:28:20.139Z,23.57
2024-02-05T03:29:22.161Z,24.25
2024-02-05T03:30:24.741Z,23.53
2024-02-05T03:31:26.876Z,23.52
2024-02-05T03:32:28.861Z,22.68
2024-02-05T03:33:30.831Z,24.22
2024-02-05T03:34:32.949Z,24.02
2024-02-05T03:35:34.957Z,24.45
2024-02-05T03:36:36.904Z,23.40
2024-02-05T03:37:39.003Z,23.85
2024-02-05T03:38:41.009Z,24.22
2024-02-05T03:39:43.033Z,24.05
2024-02-05T03:40:45.036Z,24.27
2024-02-05T03:41:47.028Z,23.82
2024-02-05T03:42:49.640Z,24.92
2024-02-05T03:43:51.637Z,24.03
2024-02-05T03:44:53.618Z,23.78
2024-02-05T03:45:55.674Z,23.07
2024-02-05T03:46:57.678Z,24.62
2024-02-05T03:47:59.792Z,23.77
2024-02-05T03:49:02.004Z,23.90
2024-02-05T03:50:05.094Z,23.38
2024-02-05T03:51:07.275Z,24.12
2024-02-05T03:52:09.303Z,23.62
2024-02-05T03:53:11.296Z,23.30
2024-02-05T03:54:13.291Z,22.52
2024-02-05T03:55:15.820Z,22.43
2024-02-05T03:56:19.430Z,23.23
2024-02-05T03:57:21.379Z,21.95
2024-02-05T03:58:23.458Z,23.12
2024-02-05T03:59:25.439Z,23.05
2024-02-05T04:00:27.899Z,22.57
2024-02-05T04:01:31.436Z,23.03
2024-02-05T04:02:33.650Z,22.90
2024-02-05T04:03:35.679Z,22.45
2024-02-05T04:04:38.560Z,22.23
2024-02-05T04:05:40.631Z,22.80
2024-02-05T04:06:42.753Z,23.40
2024-02-05T04:07:44.870Z,22.65
2024-02-05T04:08:46.875Z,22.20
2024-02-05T04:09:50.315Z,23.60
2024-02-05T04:10:57.553Z,24.92
2024-02-05T04:11:59.511Z,25.50
2024-02-05T04:13:01.566Z,25.45
2024-02-05T04:14:03.569Z,23.17
2024-02-05T04:15:05.989Z,22.80
2024-02-05T04:16:14.251Z,22.40
2024-02-05T04:17:17.915Z,23.27
2024-02-05T04:18:19.885Z,23.25
2024-02-05T04:19:21.897Z,23.40
2024-02-05T04:20:23.954Z,23.50
2024-02-05T04:21:25.939Z,23.43
2024-02-05T04:22:27.984Z,22.90
2024-02-05T04:23:29.991Z,23.00
2024-02-05T04:24:32.059Z,22.22
2024-02-05T04:25:34.124Z,22.92
2024-02-05T04:26:38.817Z,22.98
2024-02-05T04:27:40.876Z,23.28
2024-02-05T04:28:42.989Z,22.60
2024-02-05T04:29:45.797Z,22.98
2024-02-05T04:30:51.594Z,22.95
2024-02-05T04:31:53.639Z,23.87
2024-02-05T04:32:56.994Z,22.43
2024-02-05T04:33:59.090Z,23.03
2024-02-05T04:35:01.422Z,23.27
2024-02-05T04:36:03.695Z,22.33
2024-02-05T04:37:05.955Z,22.25
2024-02-05T04:38:08.017Z,22.03
2024-02-05T04:39:12.956Z,21.80
2024-02-05T04:40:15.376Z,22.08
2024-02-05T04:41:17.478Z,22.77
2024-02-05T04:42:19.474Z,22.90
2024-02-05T04:43:21.644Z,21.32
2024-02-05T04:44:23.601Z,21.70
2024-02-05T04:45:25.577Z,21.68
2024-02-05T04:46:27.960Z,22.08
2024-02-05T04:47:29.982Z,21.98
2024-02-05T04:48:32.409Z,21.85
2024-02-05T04:49:34.559Z,22.13
2024-02-05T04:50:36.635Z,21.18
2024-02-05T04:51:38.691Z,21.33
2024-02-05T04:52:40.697Z,21.45
2024-02-05T04:53:42.736Z,20.83
2024-02-05T04:54:47.281Z,20.80
2024-02-05T04:55:49.290Z,20.43
2024-02-05T04:56:51.274Z,20.70
2024-02-05T04:57:53.313Z,19.75
2024-02-05T04:58:55.336Z,19.85
2024-02-05T04:59:57.323Z,20.48
2024-02-05T05:00:59.454Z,20.38
2024-02-05T05:02:01.684Z,19.27
2024-02-05T05:03:04.224Z,19.83
2024-02-05T05:04:06.241Z,19.90
2024-02-05T05:05:11.080Z,20.35
2024-02-05T05:06:13.149Z,19.47
2024-02-05T05:07:15.719Z,20.07
2024-02-05T05:08:17.712Z,20.08
2024-02-05T05:09:19.658Z,20.37
2024-02-05T05:10:24.380Z,20.40
2024-02-05T05:11:26.423Z,19.43
2024-02-05T05:12:28.785Z,20.55
2024-02-05T05:13:30.777Z,20.78
2024-02-05T05:14:32.757Z,20.87
2024-02-05T05:15:37.625Z,20.05
2024-02-05T05:16:40.144Z,19.15
2024-02-05T05:17:46.009Z,19.80
2024-02-05T05:18:48.339Z,20.13
2024-02-05T05:19:50.686Z,20.88
2024-02-05T05:20:52.712Z,19.88
2024-02-05T05:21:56.070Z,20.97
2024-02-05T05:22:58.061Z,20.87
2024-02-05T05:24:00.044Z,20.47
2024-02-05T05:25:02.105Z,21.95
2024-02-05T05:26:04.091Z,21.60
2024-02-05T05:27:06.850Z,22.10
2024-02-05T05:28:09.269Z,21.53
2024-02-05T05:29:13.257Z,20.72
2024-02-05T05:30:16.382Z,20.85
2024-02-05T05:31:18.655Z,21.98
2024-02-05T05:32:20.651Z,21.27
2024-02-05T05:33:22.659Z,20.35
2024-02-05T05:34:25.412Z,21.93
2024-02-05T05:35:27.443Z,20.83
2024-02-05T05:36:29.402Z,19.85
2024-02-05T05:37:31.705Z,21.18
2024-02-05T05:38:33.746Z,23.10
2024-02-05T05:39:36.539Z,21.02
2024-02-05T05:40:38.551Z,23.22
2024-02-05T05:41:40.547Z,22.38
2024-02-05T05:42:42.586Z,23.83
2024-02-05T05:43:44.685Z,23.38
2024-02-05T05:44:46.703Z,24.00
2024-02-05T05:45:49.071Z,22.37
2024-02-05T05:46:51.055Z,20.22
2024-02-05T05:47:53.132Z,21.97
2024-02-05T05:48:58.052Z,21.62
2024-02-05T05:50:00.310Z,21.43
2024-02-05T05:51:02.434Z,21.50
2024-02-05T05:52:04.912Z,21.33
2024-02-05T05:53:06.911Z,20.98
2024-02-05T05:54:11.659Z,21.72
2024-02-05T05:55:13.626Z,22.08
2024-02-05T05:56:16.696Z,23.67
2024-02-05T05:57:18.727Z,24.47
2024-02-05T05:58:20.954Z,25.03
2024-02-05T05:59:23.093Z,24.30
2024-02-05T06:00:25.188Z,25.23
2024-02-05T06:01:30.246Z,25.13
2024-02-05T06:02:32.436Z,24.53
2024-02-05T06:03:34.464Z,23.28
2024-02-05T06:04:37.494Z,23.68
2024-02-05T06:05:39.664Z,24.02
2024-02-05T06:06:41.859Z,24.55
2024-02-05T06:07:46.152Z,25.32
2024-02-05T06:08:48.194Z,25.58
2024-02-05T06:09:50.208Z,25.92
2024-02-05T06:10:52.854Z,25.85
2024-02-05T06:11:54.910Z,26.98
2024-02-05T06:12:56.931Z,25.98
2024-02-05T06:13:59.091Z,26.00
2024-02-05T06:15:01.093Z,26.48
2024-02-05T06:16:03.170Z,25.80
2024-02-05T06:17:05.478Z,26.27
2024-02-05T06:18:08.040Z,25.20
2024-02-05T06:19:10.140Z,26.03
2024-02-05T06:20:15.485Z,25.78
2024-02-05T06:21:19.817Z,25.05
2024-02-05T06:22:21.885Z,26.60
2024-02-05T06:23:24.065Z,28.28
2024-02-05T06:24:26.061Z,27.28
2024-02-05T06:25:28.226Z,27.08
2024-02-05T06:26:30.254Z,26.43
2024-02-05T06:27:32.224Z,27.43
2024-02-05T06:28:34.316Z,26.75
2024-02-05T06:29:37.391Z,26.00
2024-02-05T06:30:44.224Z,25.10
2024-02-05T06:31:46.305Z,25.90
2024-02-05T06:32:48.334Z,26.15
2024-02-05T06:33:50.413Z,26.00
2024-02-05T06:34:52.594Z,26.43
2024-02-05T06:35:54.561Z,26.47
2024-02-05T06:36:56.557Z,26.25
2024-02-05T06:37:58.531Z,26.05
2024-02-05T06:39:01.449Z,26.05
2024-02-05T06:40:03.982Z,27.13
2024-02-05T06:41:09.018Z,26.55
2024-02-05T06:42:11.034Z,28.17
2024-02-05T06:43:13.565Z,29.22
2024-02-05T06:44:18.384Z,29.62
2024-02-05T06:45:22.577Z,30.13
2024-02-05T06:46:24.780Z,30.78
2024-02-05T06:47:27.489Z,29.73
2024-02-05T06:48:29.571Z,28.70
2024-02-05T06:49:31.679Z,29.42
2024-02-05T06:50:33.726Z,28.17
2024-02-05T06:51:35.961Z,28.27
2024-02-05T06:52:38.251Z,27.78
2024-02-05T06:53:40.336Z,29.80
2024-02-05T06:54:42.578Z,29.40
2024-02-05T06:55:44.921Z,27.95
2024-02-05T06:56:50.397Z,28.67
2024-02-05T06:57:55.167Z,27.85
2024-02-05T06:58:59.015Z,27.98
2024-02-05T07:00:01.744Z,28.92
2024-02-05T07:01:04.470Z,27.93
2024-02-05T07:02:10.467Z,27.72
2024-02-05T07:03:14.058Z,28.17
2024-02-05T07:04:17.427Z,28.08
2024-02-05T07:05:21.852Z,30.12
2024-02-05T07:06:24.983Z,33.07
2024-02-05T07:07:29.178Z,33.27
2024-02-05T07:08:31.418Z,31.82
2024-02-05T07:09:34.219Z,32.10
2024-02-05T07:10:36.669Z,30.27
2024-02-05T07:11:39.189Z,30.03
2024-02-05T07:12:41.538Z,29.85
2024-02-05T07:13:43.598Z,30.78
2024-02-05T07:14:45.750Z,30.72
2024-02-05T07:15:47.793Z,30.78
2024-02-05T07:16:49.930Z,30.93
2024-02-05T07:17:52.070Z,31.33
2024-02-05T07:18:54.669Z,30.10
2024-02-05T07:19:59.706Z,31.87
2024-02-05T07:21:06.380Z,31.28
2024-02-05T07:22:14.642Z,30.90
2024-02-05T07:23:16.766Z,32.10
2024-02-05T07:24:19.024Z,32.90
2024-02-05T07:25:22.041Z,32.17
2024-02-05T07:26:24.116Z,32.07
2024-02-05T07:27:29.729Z,32.57
2024-02-05T07:28:33.786Z,32.83
2024-02-05T07:29:35.875Z,32.55
2024-02-05T07:30:37.933Z,32.52
2024-02-05T07:31:39.990Z,32.18
2024-02-05T07:32:42.638Z,32.37
2024-02-05T07:33:44.776Z,32.28
2024-02-05T07:34:49.806Z,33.10
2024-02-05T07:35:51.883Z,33.75
2024-02-05T07:36:53.986Z,32.75
2024-02-05T07:37:56.037Z,33.43
2024-02-05T07:38:58.140Z,33.23
2024-02-05T07:40:00.530Z,31.88
2024-02-05T07:41:08.377Z,32.48
2024-02-05T07:42:11.110Z,32.77
2024-02-05T07:43:13.522Z,32.40
2024-02-05T07:44:15.699Z,33.20
2024-02-05T07:45:17.882Z,33.27
2024-02-05T07:46:21.735Z,33.78
2024-02-05T07:47:24.232Z,33.23
2024-02-05T07:48:28.960Z,33.25
2024-02-05T07:49:31.182Z,32.48
2024-02-05T07:50:33.243Z,33.20
2024-02-05T07:51:35.324Z,31.97
2024-02-05T07:52:37.383Z,32.37
2024-02-05T07:53:42.258Z,31.62
2024-02-05T07:54:44.715Z,32.35
2024-02-05T07:55:46.731Z,32.55
2024-02-05T07:56:48.983Z,31.28
2024-02-05T07:57:51.567Z,31.08
2024-02-05T07:58:53.762Z,31.55
2024-02-05T07:59:56.954Z,30.13
2024-02-05T08:00:59.276Z,31.00
2024-02-05T08:02:01.741Z,30.05
2024-02-05T08:03:04.725Z,31.33
2024-02-05T08:04:07.098Z,30.93
2024-02-05T08:05:09.547Z,30.58
2024-02-05T08:06:19.391Z,30.08
2024-02-05T08:07:21.541Z,28.75
2024-02-05T08:08:24.145Z,29.00
2024-02-05T08:09:28.101Z,30.08
2024-02-05T08:10:30.196Z,29.85
2024-02-05T08:11:32.560Z,29.63
2024-02-05T08:12:34.735Z,30.40
2024-02-05T08:13:37.040Z,28.78
2024-02-05T08:14:39.676Z,29.18
2024-02-05T08:15:47.500Z,29.50
2024-02-05T08:16:49.595Z,28.95
2024-02-05T08:17:51.766Z,29.32
2024-02-05T08:18:54.042Z,29.13
2024-02-05T08:19:56.317Z,30.20
2024-02-05T08:20:58.465Z,28.68
2024-02-05T08:22:02.250Z,29.30
2024-02-05T08:23:04.313Z,28.35
2024-02-05T08:24:06.523Z,28.67
2024-02-05T08:25:09.217Z,28.43
2024-02-05T08:26:13.185Z,29.37
2024-02-05T08:27:15.534Z,29.50
2024-02-05T08:28:17.581Z,29.37
2024-02-05T08:29:23.202Z,28.67
2024-02-05T08:30:25.230Z,29.13
2024-02-05T08:31:27.579Z,28.65
2024-02-05T08:32:29.985Z,29.13
2024-02-05T08:33:33.188Z,28.62
2024-02-05T08:34:35.634Z,29.00
2024-02-05T08:35:37.916Z,28.57
2024-02-05T08:36:40.149Z,27.93
2024-02-05T08:37:42.231Z,28.42
2024-02-05T08:38:44.544Z,27.98
2024-02-05T08:39:46.739Z,28.10
2024-02-05T08:40:48.876Z,28.77
2024-02-05T08:41:50.943Z,28.38
2024-02-05T08:42:52.984Z,28.90
2024-02-05T08:43:55.137Z,28.78
2024-02-05T08:44:59.043Z,28.70
2024-02-05T08:46:05.456Z,27.90
2024-02-05T08:47:10.185Z,27.88
2024-02-05T08:48:12.582Z,27.93
2024-02-05T08:49:14.870Z,28.40
2024-02-05T08:50:17.098Z,28.25
2024-02-05T08:51:19.836Z,28.77
2024-02-05T08:52:24.290Z,28.38
2024-02-05T08:53:26.471Z,28.88
2024-02-05T08:54:28.844Z,29.43
2024-02-05T08:55:30.935Z,28.68
2024-02-05T08:56:34.154Z,27.77
2024-02-05T08:57:36.225Z,27.60
2024-02-05T08:58:47.044Z,28.25
2024-02-05T08:59:52.182Z,27.75
2024-02-05T09:00:57.067Z,27.78
2024-02-05T09:01:59.260Z,27.15
2024-02-05T09:03:06.205Z,27.17
2024-02-05T09:04:10.096Z,27.63
2024-02-05T09:05:12.171Z,27.75
2024-02-05T09:06:14.314Z,26.78
2024-02-05T09:07:16.605Z,26.62
2024-02-05T09:08:19.434Z,26.93
2024-02-05T09:09:21.476Z,26.22
2024-02-05T09:10:24.413Z,26.27
2024-02-05T09:11:34.808Z,26.30
2024-02-05T09:12:38.582Z,25.65
2024-02-05T09:13:40.711Z,25.70
2024-02-05T09:14:42.735Z,25.10
2024-02-05T09:15:45.164Z,25.43
2024-02-05T09:16:47.399Z,25.40
2024-02-05T09:17:50.227Z,24.83
2024-02-05T09:18:52.437Z,24.27
2024-02-05T09:19:54.589Z,25.38
2024-02-05T09:20:56.730Z,25.48
2024-02-05T09:21:59.050Z,26.30
2024-02-05T09:23:01.361Z,25.23
2024-02-05T09:24:03.481Z,24.35
2024-02-05T09:25:07.249Z,24.38
2024-02-05T09:26:09.433Z,24.33
2024-02-05T09:27:12.266Z,24.28
2024-02-05T09:28:14.944Z,23.32
2024-02-05T09:29:17.173Z,23.45
2024-02-05T09:30:21.845Z,24.07
2024-02-05T09:31:23.881Z,23.67
2024-02-05T09:32:26.000Z,23.98
2024-02-05T09:33:28.001Z,23.83
2024-02-05T09:34:30.108Z,23.50
2024-02-05T09:35:32.319Z,22.63
2024-02-05T09:36:37.030Z,22.78
2024-02-05T09:37:39.083Z,23.80
2024-02-05T09:38:41.117Z,25.53
2024-02-05T09:39:43.191Z,25.78
2024-02-05T09:40:45.367Z,25.48
2024-02-05T09:41:47.414Z,26.00
2024-02-05T09:42:51.124Z,24.35
2024-02-05T09:43:53.203Z,25.30
2024-02-05T09:44:55.885Z,25.48
2024-02-05T09:46:03.070Z,25.13
2024-02-05T09:47:05.278Z,24.52
2024-02-05T09:48:08.613Z,23.65
2024-02-05T09:49:12.061Z,23.12
2024-02-05T09:50:16.118Z,22.43
2024-02-05T09:51:18.344Z,22.53
2024-02-05T09:52:20.779Z,23.10
2024-02-05T09:53:22.870Z,22.67
2024-02-05T09:54:24.979Z,22.85
2024-02-05T09:55:29.189Z,22.15
2024-02-05T09:56:34.645Z,22.55
2024-02-05T09:57:41.110Z,23.35
2024-02-05T09:58:43.175Z,24.47
2024-02-05T09:59:48.209Z,24.98
2024-02-05T10:00:50.749Z,23.90
2024-02-05T10:01:52.801Z,23.90
2024-02-05T10:02:55.260Z,23.43
2024-02-05T10:03:57.842Z,22.73
2024-02-05T10:05:00.558Z,22.50
2024-02-05T10:06:05.471Z,22.97
2024-02-05T10:07:17.396Z,22.48
2024-02-05T10:08:19.618Z,21.97
2024-02-05T10:09:22.443Z,22.32
2024-02-05T10:10:24.486Z,21.95
2024-02-05T10:11:26.940Z,21.75
2024-02-05T10:12:28.984Z,22.48
2024-02-05T10:13:31.132Z,22.28
2024-02-05T10:14:33.590Z,22.62
2024-02-05T10:15:35.543Z,23.12
2024-02-05T10:16:38.889Z,23.03
2024-02-05T10:17:40.878Z,22.82
2024-02-05T10:18:42.980Z,23.53
2024-02-05T10:19:47.224Z,23.20
2024-02-05T10:20:49.343Z,22.40
2024-02-05T10:21:51.589Z,23.13
2024-02-05T10:22:53.618Z,23.07
2024-02-05T10:23:55.923Z,23.57
2024-02-05T10:25:01.090Z,22.38
2024-02-05T10:26:03.438Z,24.02
2024-02-05T10:27:05.497Z,23.17
2024-02-05T10:28:08.338Z,23.93
2024-02-05T10:29:14.188Z,23.28
2024-02-05T10:30:19.297Z,23.78
2024-02-05T10:31:24.574Z,23.70
2024-02-05T10:32:26.705Z,23.67
2024-02-05T10:33:28.781Z,23.03
2024-02-05T10:34:31.077Z,23.68
2024-02-05T10:35:33.083Z,22.50
2024-02-05T10:36:35.033Z,22.18
2024-02-05T10:37:37.285Z,22.05
2024-02-05T10:38:39.426Z,23.00
2024-02-05T10:39:41.577Z,22.95
2024-02-05T10:40:43.812Z,23.08
2024-02-05T10:41:45.785Z,21.75
2024-02-05T10:42:47.805Z,21.82
2024-02-05T10:43:52.671Z,22.05
2024-02-05T10:44:54.713Z,21.22
2024-02-05T10:45:59.649Z,21.17
2024-02-05T10:47:02.586Z,21.22
2024-02-05T10:48:05.617Z,21.70
2024-02-05T10:49:09.295Z,21.00
2024-02-05T10:50:15.515Z,21.72
2024-02-05T10:51:17.814Z,20.73
2024-02-05T10:52:20.009Z,20.20
2024-02-05T10:53:24.232Z,20.63
2024-02-05T10:54:26.754Z,20.50
2024-02-05T10:55:28.877Z,20.80
2024-02-05T10:56:31.961Z,20.90
2024-02-05T10:57:39.047Z,20.93
2024-02-05T10:58:43.227Z,19.35
2024-02-05T10:59:45.204Z,19.45
2024-02-05T11:00:47.365Z,18.65
2024-02-05T11:01:50.045Z,17.52
2024-02-05T11:02:55.780Z,17.85
2024-02-05T11:03:59.193Z,17.07
2024-02-05T11:05:04.091Z,16.72
2024-02-05T11:06:07.071Z,18.92
2024-02-05T11:07:09.786Z,19.93
2024-02-05T11:08:27.471Z,20.80
2024-02-05T11:09:30.017Z,20.93
2024-02-05T11:10:33.625Z,20.87
2024-02-05T11:11:37.548Z,20.07
2024-02-05T11:12:39.892Z,20.45
2024-02-05T11:13:53.390Z,20.22
2024-02-05T11:14:56.580Z,19.98
2024-02-05T11:16:02.853Z,18.95
2024-02-05T11:17:05.788Z,18.17
2024-02-05T11:18:15.391Z,18.57
2024-02-05T11:19:18.653Z,19.00
2024-02-05T11:20:20.737Z,18.40
2024-02-05T11:21:27.142Z,18.17
2024-02-05T11:22:29.197Z,18.17
2024-02-05T11:23:32.182Z,18.07
2024-02-05T11:24:34.906Z,18.25
2024-02-05T11:25:37.075Z,18.45
2024-02-05T11:26:39.801Z,18.60
2024-02-05T11:27:43.547Z,18.23
2024-02-05T11:28:50.600Z,17.35
2024-02-05T11:29:52.923Z,18.13
2024-02-05T11:31:03.111Z,18.20
2024-02-05T11:32:06.046Z,17.37
2024-02-05T11:33:08.104Z,18.77
2024-02-05T11:34:10.204Z,17.47
2024-02-05T11:35:14.200Z,17.42
2024-02-05T11:36:16.326Z,17.13
2024-02-05T11:37:18.838Z,17.17
2024-02-05T11:38:21.874Z,16.93
2024-02-05T11:39:24.910Z,17.07
2024-02-05T11:40:28.095Z,16.45
2024-02-05T11:41:31.489Z,16.85
2024-02-05T11:42:34.544Z,16.82
2024-02-05T11:43:36.642Z,16.18
2024-02-05T11:44:38.645Z,16.65
2024-02-05T11:45:40.638Z,17.47
2024-02-05T11:46:43.788Z,16.70
2024-02-05T11:47:45.878Z,16.10
2024-02-05T11:48:48.426Z,16.80
2024-02-05T11:49:50.824Z,16.80
2024-02-05T11:50:52.934Z,16.55
2024-02-05T11:51:54.928Z,16.53
2024-02-05T11:52:57.014Z,16.07
2024-02-05T11:54:02.025Z,16.17
2024-02-05T11:55:04.259Z,16.03
2024-02-05T11:56:09.532Z,16.40
2024-02-05T11:57:11.509Z,16.27
2024-02-05T11:58:13.852Z,16.27
2024-02-05T11:59:15.866Z,15.68
2024-02-05T12:00:17.920Z,15.92
2024-02-05T12:01:20.031Z,15.67
2024-02-05T12:02:22.341Z,15.75
2024-02-05T12:03:24.732Z,15.92
2024-02-05T12:04:26.902Z,15.50
2024-02-05T12:05:30.811Z,15.82
2024-02-05T12:06:33.285Z,14.88
2024-02-05T12:07:35.725Z,15.57
2024-02-05T12:08:38.089Z,14.97
2024-02-05T12:09:40.130Z,15.28
2024-02-05T12:10:42.137Z,16.03
2024-02-05T12:11:44.246Z,15.88
2024-02-05T12:12:47.342Z,15.57
2024-02-05T12:14:12.135Z,14.72
2024-02-05T12:15:20.789Z,15.37
2024-02-05T12:16:26.322Z,15.43
2024-02-05T12:17:29.790Z,14.83
2024-02-05T12:18:31.813Z,15.55
2024-02-05T12:19:34.029Z,15.25
2024-02-05T12:20:36.328Z,14.60
2024-02-05T12:21:38.457Z,15.28
2024-02-05T12:22:40.526Z,14.35
2024-02-05T12:23:46.492Z,14.10
2024-02-05T12:24:48.490Z,13.62
2024-02-05T12:25:51.093Z,14.45
2024-02-05T12:26:53.151Z,14.50
2024-02-05T12:27:55.201Z,14.57
2024-02-05T12:28:57.978Z,14.48
2024-02-05T12:30:07.201Z,12.92
2024-02-05T12:31:09.369Z,13.60
2024-02-05T12:32:11.451Z,13.32
2024-02-05T12:33:17.317Z,12.57
2024-02-05T12:34:19.847Z,12.47
2024-02-05T12:35:22.346Z,12.87
2024-02-05T12:36:24.672Z,12.77
2024-02-05T12:37:27.488Z,12.07
2024-02-05T12:38:31.520Z,12.70
2024-02-05T12:39:33.932Z,12.33
2024-02-05T12:40:36.024Z,12.38
2024-02-05T12:41:38.010Z,13.20
2024-02-05T12:42:40.306Z,12.90
2024-02-05T12:43:42.593Z,13.50
2024-02-05T12:44:53.160Z,12.80
2024-02-05T12:46:03.038Z,13.27
2024-02-05T12:47:07.584Z,13.08
2024-02-05T12:48:09.621Z,12.97
2024-02-05T12:49:11.736Z,13.55
2024-02-05T12:50:13.869Z,13.33
2024-02-05T12:51:15.991Z,12.58
2024-02-05T12:52:19.172Z,12.97
2024-02-05T12:53:21.704Z,13.20
2024-02-05T12:54:23.720Z,13.55
2024-02-05T12:55:26.193Z,13.00
2024-02-05T12:56:28.442Z,13.12
2024-02-05T12:57:30.432Z,13.47
2024-02-05T12:58:32.465Z,12.78
2024-02-05T12:59:34.865Z,12.30
2024-02-05T13:00:37.158Z,12.87
2024-02-05T13:01:39.266Z,12.30
2024-02-05T13:02:41.312Z,13.07
2024-02-05T13:03:43.425Z,12.20
2024-02-05T13:04:48.082Z,12.02
2024-02-05T13:05:50.470Z,12.28
2024-02-05T13:07:03.455Z,11.68
2024-02-05T13:08:08.827Z,12.00
2024-02-05T13:09:10.824Z,13.00
2024-02-05T13:10:14.784Z,12.60
2024-02-05T13:11:16.928Z,13.25
2024-02-05T13:12:19.299Z,13.52
2024-02-05T13:13:24.876Z,12.98
2024-02-05T13:14:29.561Z,12.77
2024-02-05T13:15:31.556Z,12.00
2024-02-05T13:16:33.684Z,11.68
2024-02-05T13:17:35.733Z,12.05
2024-02-05T13:18:37.850Z,11.40
2024-02-05T13:19:40.340Z,11.30
2024-02-05T13:20:42.958Z,11.30
2024-02-05T13:21:44.976Z,10.35
2024-02-05T13:22:49.466Z,10.03
2024-02-05T13:23:51.463Z,10.37
2024-02-05T13:24:53.445Z,10.82
2024-02-05T13:25:55.470Z,10.62
2024-02-05T13:26:57.510Z,10.22
2024-02-05T13:27:59.543Z,9.73
2024-02-05T13:29:01.546Z,9.62
2024-02-05T13:30:06.955Z,9.78